createdAt,value
2017-09-10T00:01:13.467Z,11.50
2017-09-10T00:03:42.457Z,11.50
2017-09-10T00:06:11.417Z,14.10
2017-09-10T00:08:40.352Z,11.40
2017-09-10T00:11:09.316Z,11.40
2017-09-10T00:13:38.287Z,11.40
2017-09-10T00:16:07.253Z,11.40
2017-09-10T00:18:36.211Z,11.40
2017-09-10T00:21:05.219Z,11.30
2017-09-10T00:23:34.177Z,11.30
2017-09-10T00:26:03.160Z,11.20
2017-09-10T00:28:33.001Z,11.20
2017-09-10T00:31:02.001Z,11.20
2017-09-10T00:33:31.797Z,11.10
2017-09-10T00:36:00.760Z,11.10
2017-09-10T00:38:30.291Z,11.20
2017-09-10T00:40:59.670Z,11.30
2017-09-10T00:43:28.633Z,11.30
2017-09-10T00:45:57.597Z,11.30
2017-09-10T00:48:26.580Z,11.40
2017-09-10T00:50:55.544Z,11.40
2017-09-10T00:53:24.507Z,11.40
2017-09-10T00:55:53.489Z,11.30
2017-09-10T00:58:22.472Z,11.40
2017-09-10T01:00:52.214Z,11.30
2017-09-10T01:03:21.178Z,11.30
2017-09-10T01:05:50.916Z,11.30
2017-09-10T01:08:19.873Z,11.20
2017-09-10T01:10:49.615Z,11.10
2017-09-10T01:13:18.597Z,11.10
2017-09-10T01:15:47.719Z,11.20
2017-09-10T01:18:16.685Z,11.10
2017-09-10T01:20:45.639Z,11.00
2017-09-10T01:23:15.407Z,11.10
2017-09-10T01:25:44.446Z,12.40
2017-09-10T01:28:13.436Z,11.10
2017-09-10T01:30:43.185Z,11.00
2017-09-10T01:33:12.155Z,11.00
2017-09-10T01:35:42.063Z,11.00
2017-09-10T01:38:11.777Z,11.00
2017-09-10T01:40:40.741Z,11.00
2017-09-10T01:43:09.693Z,11.00
2017-09-10T01:45:38.648Z,11.00
2017-09-10T01:48:07.653Z,11.00
2017-09-10T01:50:37.001Z,11.00
2017-09-10T01:53:05.976Z,11.00
2017-09-10T01:55:34.933Z,10.90
2017-09-10T01:58:03.912Z,10.80
2017-09-10T02:00:32.862Z,10.80
2017-09-10T02:03:01.839Z,10.70
2017-09-10T02:05:30.789Z,10.70
2017-09-10T02:08:00.574Z,10.60
2017-09-10T02:10:29.599Z,10.60
2017-09-10T02:12:59.344Z,10.60
2017-09-10T02:15:28.835Z,10.50
2017-09-10T02:17:57.859Z,10.60
2017-09-10T02:20:26.979Z,10.50
2017-09-10T02:22:55.978Z,10.50
2017-09-10T02:25:25.696Z,10.50
2017-09-10T02:27:55.435Z,10.50
2017-09-10T02:30:24.429Z,10.50
2017-09-10T02:32:53.783Z,10.50
2017-09-10T02:35:23.544Z,10.40
2017-09-10T02:37:52.499Z,10.40
2017-09-10T02:40:22.229Z,10.40
2017-09-10T02:42:51.596Z,10.40
2017-09-10T02:45:21.310Z,10.30
2017-09-10T02:47:51.037Z,10.20
2017-09-10T02:50:19.994Z,10.20
2017-09-10T02:52:49.752Z,10.10
2017-09-10T02:55:18.745Z,10.10
2017-09-10T02:57:48.116Z,10.20
2017-09-10T03:00:17.840Z,10.20
2017-09-10T03:02:46.825Z,10.20
2017-09-10T03:05:16.556Z,10.20
2017-09-10T03:07:45.521Z,10.20
2017-09-10T03:10:15.281Z,10.20
2017-09-10T03:12:44.231Z,10.10
2017-09-10T03:15:13.982Z,10.10
2017-09-10T03:17:42.921Z,10.00
2017-09-10T03:20:12.302Z,10.10
2017-09-10T03:22:41.232Z,10.10
2017-09-10T03:25:10.244Z,10.00
2017-09-10T03:27:39.220Z,10.00
2017-09-10T03:30:08.988Z,10.00
2017-09-10T03:32:38.049Z,10.00
2017-09-10T03:35:07.264Z,9.90
2017-09-10T03:37:36.220Z,9.90
2017-09-10T03:40:05.639Z,10.00
2017-09-10T03:42:34.565Z,9.90
2017-09-10T03:45:03.540Z,9.80
2017-09-10T03:47:32.477Z,9.80
2017-09-10T03:50:02.189Z,9.90
2017-09-10T03:52:31.158Z,9.90
2017-09-10T03:55:00.141Z,9.80
2017-09-10T03:57:29.096Z,9.80
2017-09-10T03:59:58.042Z,9.90
2017-09-10T04:02:27.424Z,9.90
2017-09-10T04:04:56.504Z,9.90
2017-09-10T04:07:25.472Z,9.90
2017-09-10T04:09:54.418Z,9.90
2017-09-10T04:12:23.388Z,9.90
2017-09-10T04:14:52.793Z,10.00
2017-09-10T04:17:21.792Z,10.00
2017-09-10T04:19:51.526Z,10.10
2017-09-10T04:22:20.507Z,10.10
2017-09-10T04:24:50.291Z,10.20
2017-09-10T04:27:19.263Z,10.30
2017-09-10T04:29:48.215Z,10.20
2017-09-10T04:32:17.700Z,10.20
2017-09-10T04:34:46.664Z,10.20
2017-09-10T04:37:16.033Z,10.10
2017-09-10T04:39:44.995Z,10.10
2017-09-10T04:42:14.028Z,10.10
2017-09-10T04:44:42.985Z,10.10
2017-09-10T04:47:11.974Z,10.10
2017-09-10T04:49:40.956Z,10.00
2017-09-10T04:52:09.933Z,10.10
2017-09-10T04:54:39.673Z,10.20
2017-09-10T04:57:08.656Z,10.10
2017-09-10T04:59:37.634Z,10.10
2017-09-10T05:02:06.668Z,10.20
2017-09-10T05:04:35.621Z,10.10
2017-09-10T05:07:05.367Z,10.30
2017-09-10T05:09:34.347Z,10.50
2017-09-10T05:12:03.316Z,10.40
2017-09-10T05:14:32.675Z,10.40
2017-09-10T05:17:01.673Z,10.40
2017-09-10T05:19:31.436Z,10.50
2017-09-10T05:22:00.410Z,10.60
2017-09-10T05:24:29.405Z,10.60
2017-09-10T05:26:58.412Z,10.60
2017-09-10T05:29:27.379Z,10.60
2017-09-10T05:31:56.356Z,10.60
2017-09-10T05:34:25.345Z,10.50
2017-09-10T05:36:54.323Z,10.60
2017-09-10T05:39:24.065Z,10.60
2017-09-10T05:41:53.792Z,10.70
2017-09-10T05:44:22.802Z,10.90
2017-09-10T05:46:51.865Z,10.80
2017-09-10T05:49:20.840Z,10.90
2017-09-10T05:51:49.830Z,10.90
2017-09-10T05:54:19.608Z,11.00
2017-09-10T05:56:48.592Z,11.10
2017-09-10T05:59:17.981Z,11.10
2017-09-10T06:01:47.454Z,11.10
2017-09-10T06:04:16.527Z,11.20
2017-09-10T06:06:46.348Z,11.10
2017-09-10T06:09:16.281Z,11.00
2017-09-10T06:11:45.236Z,8.90
2017-09-10T06:14:15.017Z,11.10
2017-09-10T06:16:44.010Z,11.20
2017-09-10T06:19:12.986Z,11.10
2017-09-10T06:21:42.771Z,11.20
2017-09-10T06:24:11.731Z,11.30
2017-09-10T06:26:41.601Z,11.40
2017-09-10T06:29:10.685Z,11.40
2017-09-10T06:31:40.127Z,11.40
2017-09-10T06:34:09.148Z,11.50
2017-09-10T06:36:38.214Z,11.50
2017-09-10T06:39:08.348Z,11.60
2017-09-10T06:41:37.338Z,11.70
2017-09-10T06:44:06.296Z,11.60
2017-09-10T06:46:36.175Z,11.50
2017-09-10T06:49:05.924Z,11.60
2017-09-10T06:51:34.945Z,11.60
2017-09-10T06:54:04.791Z,11.40
2017-09-10T06:56:33.789Z,11.40
2017-09-10T06:59:03.505Z,11.40
2017-09-10T07:01:33.244Z,11.50
2017-09-10T07:04:02.395Z,11.50
2017-09-10T07:06:31.808Z,11.70
2017-09-10T07:09:01.683Z,11.80
2017-09-10T07:11:32.039Z,12.00
2017-09-10T07:14:01.798Z,12.00
2017-09-10T07:16:31.541Z,12.20
2017-09-10T07:19:00.563Z,12.10
2017-09-10T07:21:29.555Z,12.10
2017-09-10T07:23:58.613Z,12.40
2017-09-10T07:26:28.348Z,12.40
2017-09-10T07:28:57.355Z,12.30
2017-09-10T07:31:26.434Z,12.30
2017-09-10T07:33:56.448Z,12.20
2017-09-10T07:36:26.201Z,12.40
2017-09-10T07:38:56.003Z,12.40
2017-09-10T07:41:25.124Z,12.40
2017-09-10T07:43:54.855Z,12.50
2017-09-10T07:46:24.630Z,12.60
2017-09-10T07:48:53.630Z,12.60
2017-09-10T07:51:22.636Z,12.70
2017-09-10T07:53:51.780Z,12.90
2017-09-10T07:56:21.692Z,13.00
2017-09-10T07:58:50.716Z,13.00
2017-09-10T08:01:19.700Z,13.10
2017-09-10T08:03:48.789Z,13.10
2017-09-10T08:06:17.867Z,13.00
2017-09-10T08:08:47.769Z,13.00
2017-09-10T08:11:16.748Z,12.90
2017-09-10T08:13:46.502Z,12.90
2017-09-10T08:16:16.016Z,13.10
2017-09-10T08:18:45.016Z,13.20
2017-09-10T08:21:14.757Z,13.30
2017-09-10T08:23:44.613Z,13.50
2017-09-10T08:26:13.646Z,13.50
2017-09-10T08:28:42.666Z,13.70
2017-09-10T08:31:12.427Z,13.60
2017-09-10T08:33:41.376Z,13.50
2017-09-10T08:36:10.387Z,13.70
2017-09-10T08:38:39.343Z,13.90
2017-09-10T08:41:08.732Z,13.80
2017-09-10T08:43:38.525Z,13.60
2017-09-10T08:46:08.496Z,13.40
2017-09-10T08:48:38.430Z,13.40
2017-09-10T08:51:08.250Z,13.50
2017-09-10T08:53:37.393Z,13.80
2017-09-10T08:56:06.498Z,13.80
2017-09-10T08:58:36.354Z,14.10
2017-09-10T09:01:05.811Z,14.30
2017-09-10T09:03:35.557Z,14.60
2017-09-10T09:06:05.226Z,14.80
2017-09-10T09:08:34.957Z,15.00
2017-09-10T09:11:04.568Z,15.00
2017-09-10T09:13:33.616Z,14.90
2017-09-10T09:16:02.643Z,14.90
2017-09-10T09:18:31.632Z,15.30
2017-09-10T09:21:02.184Z,15.00
2017-09-10T09:23:31.179Z,15.10
2017-09-10T09:26:00.538Z,15.20
2017-09-10T09:28:29.939Z,15.20
2017-09-10T09:30:58.911Z,15.30
2017-09-10T09:33:27.899Z,15.40
2017-09-10T09:35:56.866Z,15.50
2017-09-10T09:38:26.356Z,15.60
2017-09-10T09:40:56.653Z,15.50
2017-09-10T09:43:26.519Z,15.70
2017-09-10T09:45:55.613Z,16.00
2017-09-10T09:48:25.494Z,16.20
2017-09-10T09:50:54.575Z,16.00
2017-09-10T09:53:24.349Z,16.20
2017-09-10T09:55:53.372Z,16.10
2017-09-10T09:58:22.396Z,16.30
2017-09-10T10:00:51.405Z,16.10
2017-09-10T10:03:20.525Z,16.20
2017-09-10T10:05:49.534Z,16.00
2017-09-10T10:08:18.551Z,16.30
2017-09-10T10:10:47.529Z,16.60
2017-09-10T10:13:16.622Z,16.50
2017-09-10T10:15:46.346Z,16.30
2017-09-10T10:18:15.857Z,16.20
2017-09-10T10:20:45.589Z,16.20
2017-09-10T10:23:15.362Z,16.30
2017-09-10T10:25:44.320Z,16.50
2017-09-10T10:28:14.786Z,16.70
2017-09-10T10:30:43.796Z,17.00
2017-09-10T10:33:13.647Z,17.50
2017-09-10T10:35:43.394Z,17.50
2017-09-10T10:38:12.801Z,17.30
2017-09-10T10:40:41.756Z,17.20
2017-09-10T10:43:10.825Z,17.40
2017-09-10T10:45:39.889Z,17.60
2017-09-10T10:48:08.985Z,17.70
2017-09-10T10:50:37.994Z,17.10
2017-09-10T10:53:07.402Z,17.10
2017-09-10T10:55:37.020Z,17.30
2017-09-10T10:58:06.491Z,17.40
2017-09-10T11:00:36.207Z,17.50
2017-09-10T11:03:05.320Z,17.50
2017-09-10T11:05:34.740Z,17.60
2017-09-10T11:08:03.740Z,17.40
2017-09-10T11:10:33.087Z,17.70
2017-09-10T11:13:02.905Z,18.00
2017-09-10T11:15:31.933Z,18.40
2017-09-10T11:18:00.987Z,18.50
2017-09-10T11:20:30.868Z,18.50
2017-09-10T11:23:00.739Z,18.10
2017-09-10T11:25:30.039Z,17.50
2017-09-10T11:27:59.153Z,17.40
2017-09-10T11:30:28.125Z,18.00
2017-09-10T11:32:57.454Z,18.50
2017-09-10T11:35:26.474Z,18.50
2017-09-10T11:37:56.305Z,18.10
2017-09-10T11:40:25.301Z,17.80
2017-09-10T11:42:54.760Z,17.70
2017-09-10T11:45:24.768Z,17.70
2017-09-10T11:47:54.008Z,18.40
2017-09-10T11:50:23.016Z,19.90
2017-09-10T11:52:51.972Z,20.80
2017-09-10T11:55:21.761Z,20.70
2017-09-10T11:57:50.721Z,20.60
2017-09-10T12:00:19.686Z,20.70
2017-09-10T12:02:48.650Z,20.20
2017-09-10T12:05:18.417Z,20.30
2017-09-10T12:07:47.760Z,20.50
2017-09-10T12:10:17.498Z,20.70
2017-09-10T12:12:46.457Z,20.70
2017-09-10T12:15:16.196Z,21.50
2017-09-10T12:17:45.965Z,22.10
2017-09-10T12:20:14.952Z,22.00
2017-09-10T12:22:43.883Z,21.40
2017-09-10T12:25:12.858Z,21.60
2017-09-10T12:27:42.665Z,21.40
2017-09-10T12:30:12.050Z,20.80
2017-09-10T12:32:41.097Z,21.10
2017-09-10T12:35:10.060Z,21.70
2017-09-10T12:37:39.788Z,21.50
2017-09-10T12:40:08.768Z,21.50
2017-09-10T12:42:37.703Z,20.80
2017-09-10T12:45:06.685Z,21.00
2017-09-10T12:47:35.665Z,21.10
2017-09-10T12:50:04.658Z,20.70
2017-09-10T12:52:34.356Z,22.00
2017-09-10T12:55:03.338Z,22.70
2017-09-10T12:57:32.290Z,22.10
2017-09-10T13:00:01.266Z,22.50
2017-09-10T13:02:30.229Z,22.70
2017-09-10T13:04:59.968Z,21.40
2017-09-10T13:07:28.926Z,21.20
2017-09-10T13:09:57.986Z,21.30
2017-09-10T13:12:26.924Z,20.80
2017-09-10T13:14:56.704Z,19.80
2017-09-10T13:17:25.763Z,19.40
2017-09-10T13:19:54.746Z,20.10
2017-09-10T13:22:23.696Z,20.60
2017-09-10T13:24:52.709Z,20.80
2017-09-10T13:27:21.755Z,21.20
2017-09-10T13:29:50.730Z,21.90
2017-09-10T13:32:19.702Z,22.20
2017-09-10T13:34:49.153Z,22.00
2017-09-10T13:37:18.861Z,21.40
2017-09-10T13:39:47.841Z,22.00
2017-09-10T13:42:17.248Z,22.10
2017-09-10T13:44:46.217Z,21.50
2017-09-10T13:47:15.199Z,21.10
2017-09-10T13:49:44.172Z,20.90
2017-09-10T13:52:13.902Z,22.30
2017-09-10T13:54:42.892Z,22.50
2017-09-10T13:57:11.833Z,21.40
2017-09-10T13:59:40.792Z,20.80
2017-09-10T14:02:10.540Z,20.30
2017-09-10T14:04:39.500Z,20.00
2017-09-10T14:07:08.476Z,20.30
2017-09-10T14:09:37.445Z,20.10
2017-09-10T14:12:06.417Z,19.90
2017-09-10T14:14:35.749Z,19.50
2017-09-10T14:17:04.736Z,19.20
2017-09-10T14:19:34.458Z,19.20
2017-09-10T14:22:03.452Z,19.20
2017-09-10T14:24:32.431Z,19.00
2017-09-10T14:27:01.400Z,18.80
2017-09-10T14:29:30.397Z,19.50
2017-09-10T14:32:00.393Z,20.90
2017-09-10T14:34:29.368Z,21.00
2017-09-10T14:36:58.345Z,20.70
2017-09-10T14:39:28.057Z,20.50
2017-09-10T14:41:57.792Z,20.40
2017-09-10T14:44:26.777Z,20.00
2017-09-10T14:46:55.765Z,20.00
2017-09-10T14:49:25.520Z,20.80
2017-09-10T14:51:54.505Z,20.50
2017-09-10T14:54:24.184Z,20.40
2017-09-10T14:56:53.178Z,20.00
2017-09-10T14:59:22.757Z,19.50
2017-09-10T15:01:51.752Z,19.20
2017-09-10T15:04:20.809Z,19.40
2017-09-10T15:06:49.870Z,19.20
2017-09-10T15:09:19.100Z,19.00
2017-09-10T15:11:48.125Z,18.90
2017-09-10T15:14:17.481Z,18.60
2017-09-10T15:16:46.483Z,18.40
2017-09-10T15:19:15.488Z,18.40
2017-09-10T15:21:45.254Z,18.40
2017-09-10T15:24:14.628Z,18.40
2017-09-10T15:26:44.423Z,18.60
2017-09-10T15:29:14.234Z,18.80
2017-09-10T15:31:43.210Z,18.70
2017-09-10T15:34:12.334Z,18.50
2017-09-10T15:36:41.330Z,18.40
2017-09-10T15:39:10.411Z,18.20
2017-09-10T15:41:39.377Z,18.20
2017-09-10T15:44:08.432Z,18.20
2017-09-10T15:46:38.321Z,18.20
2017-09-10T15:49:08.084Z,18.00
2017-09-10T15:51:37.070Z,18.00
2017-09-10T15:54:06.801Z,18.00
2017-09-10T15:56:36.579Z,18.00
2017-09-10T15:59:05.547Z,18.10
2017-09-10T16:01:34.642Z,18.10
2017-09-10T16:04:04.542Z,18.10
2017-09-10T16:06:33.516Z,18.10
2017-09-10T16:09:02.561Z,18.10
2017-09-10T16:11:31.559Z,18.00
2017-09-10T16:14:00.562Z,18.10
2017-09-10T16:16:29.553Z,18.00
2017-09-10T16:18:58.608Z,18.00
2017-09-10T16:21:27.658Z,17.80
2017-09-10T16:23:56.733Z,17.90
2017-09-10T16:26:28.102Z,17.70
2017-09-10T16:28:57.126Z,17.70
2017-09-10T16:31:26.963Z,17.70
2017-09-10T16:33:56.823Z,17.60
2017-09-10T16:36:26.525Z,17.70
2017-09-10T16:38:56.277Z,17.60
2017-09-10T16:41:26.353Z,17.60
2017-09-10T16:43:55.324Z,17.70
2017-09-10T16:46:24.473Z,17.50
2017-09-10T16:48:53.499Z,17.50
2017-09-10T16:51:22.481Z,17.40
2017-09-10T16:53:51.486Z,17.40
2017-09-10T16:56:20.461Z,17.40
2017-09-10T16:58:50.399Z,17.40
2017-09-10T17:01:19.371Z,17.40
2017-09-10T17:03:48.340Z,17.30
2017-09-10T17:06:17.344Z,17.20
2017-09-10T17:08:47.165Z,17.10
2017-09-10T17:11:16.977Z,17.00
2017-09-10T17:13:45.925Z,17.00
2017-09-10T17:16:14.956Z,17.00
2017-09-10T17:18:43.887Z,17.00
2017-09-10T17:21:12.844Z,17.00
2017-09-10T17:23:41.837Z,16.90
2017-09-10T17:26:11.011Z,16.80
2017-09-10T17:28:39.994Z,16.80
2017-09-10T17:31:08.986Z,16.70
2017-09-10T17:33:37.966Z,16.70
2017-09-10T17:36:07.020Z,16.60
2017-09-10T17:38:36.104Z,16.50
2017-09-10T17:41:05.080Z,16.50
2017-09-10T17:43:34.270Z,16.40
2017-09-10T17:46:04.018Z,16.40
2017-09-10T17:48:33.085Z,16.30
2017-09-10T17:51:02.049Z,16.20
2017-09-10T17:53:31.070Z,16.10
2017-09-10T17:56:00.806Z,16.20
2017-09-10T17:58:30.238Z,16.20
2017-09-10T18:00:59.597Z,16.20
2017-09-10T18:03:28.540Z,16.20
2017-09-10T18:05:57.530Z,16.20
2017-09-10T18:08:26.490Z,16.20
2017-09-10T18:10:55.532Z,16.30
2017-09-10T18:13:24.466Z,16.20
2017-09-10T18:15:53.552Z,16.20
2017-09-10T18:18:22.558Z,16.10
2017-09-10T18:20:51.571Z,16.10
2017-09-10T18:23:21.414Z,16.20
2017-09-10T18:25:51.475Z,16.10
2017-09-10T18:28:21.038Z,16.10
2017-09-10T18:30:50.903Z,16.00
2017-09-10T18:33:19.866Z,15.90
2017-09-10T18:35:48.839Z,15.90
2017-09-10T18:38:18.664Z,15.90
2017-09-10T18:40:48.371Z,15.90
2017-09-10T18:43:17.374Z,15.90
2017-09-10T18:45:46.359Z,15.90
2017-09-10T18:48:16.130Z,15.70
2017-09-10T18:50:45.529Z,15.90
2017-09-10T18:53:15.326Z,15.90
2017-09-10T18:55:44.311Z,15.90
2017-09-10T18:58:13.402Z,15.80
2017-09-10T19:00:42.440Z,15.80
2017-09-10T19:03:11.461Z,15.70
2017-09-10T19:05:40.463Z,15.70
2017-09-10T19:08:09.520Z,15.60
2017-09-10T19:10:39.331Z,15.60
2017-09-10T19:13:08.321Z,15.60
2017-09-10T19:15:38.075Z,15.60
2017-09-10T19:18:07.745Z,15.50
2017-09-10T19:20:37.525Z,15.60
2017-09-10T19:23:06.498Z,15.60
2017-09-10T19:25:35.554Z,15.50
2017-09-10T19:28:05.296Z,15.60
2017-09-10T19:30:34.301Z,15.60
2017-09-10T19:33:04.053Z,15.60
2017-09-10T19:35:33.843Z,15.60
2017-09-10T19:38:02.829Z,15.60
2017-09-10T19:40:31.836Z,15.50
2017-09-10T19:43:00.856Z,15.50
2017-09-10T19:45:30.272Z,15.50
2017-09-10T19:47:59.686Z,15.40
2017-09-10T19:50:28.690Z,15.50
2017-09-10T19:52:57.697Z,15.60
2017-09-10T19:55:26.669Z,15.60
2017-09-10T19:57:55.647Z,15.60
2017-09-10T20:00:24.638Z,15.60
2017-09-10T20:02:53.653Z,15.60
2017-09-10T20:05:23.492Z,15.60
2017-09-10T20:07:52.446Z,15.60
2017-09-10T20:10:21.417Z,15.60
2017-09-10T20:12:50.513Z,15.60
2017-09-10T20:15:19.855Z,15.50
2017-09-10T20:17:48.844Z,15.50
2017-09-10T20:20:17.832Z,15.50
2017-09-10T20:22:46.864Z,15.50
2017-09-10T20:25:15.850Z,15.50
2017-09-10T20:27:44.799Z,15.50
2017-09-10T20:30:13.775Z,15.50
2017-09-10T20:32:42.737Z,15.30
2017-09-10T20:35:12.482Z,15.30
2017-09-10T20:37:41.832Z,15.30
2017-09-10T20:40:11.277Z,15.40
2017-09-10T20:42:40.273Z,15.40
2017-09-10T20:45:09.217Z,15.40
2017-09-10T20:47:38.961Z,15.30
2017-09-10T20:50:08.009Z,15.30
2017-09-10T20:52:36.971Z,15.30
2017-09-10T20:55:05.935Z,15.40
2017-09-10T20:57:34.977Z,15.40
2017-09-10T21:00:03.934Z,15.40
2017-09-10T21:02:32.933Z,15.40
2017-09-10T21:05:01.898Z,15.40
2017-09-10T21:07:30.872Z,15.40
2017-09-10T21:10:00.596Z,15.40
2017-09-10T21:12:29.580Z,15.40
2017-09-10T21:14:59.325Z,15.40
2017-09-10T21:17:28.601Z,15.40
2017-09-10T21:19:57.585Z,15.40
2017-09-10T21:22:28.202Z,15.30
2017-09-10T21:24:57.173Z,15.40
2017-09-10T21:27:26.114Z,15.40
2017-09-10T21:29:56.308Z,15.40
2017-09-10T21:32:26.021Z,15.40
2017-09-10T21:34:55.748Z,15.30
2017-09-10T21:37:24.721Z,15.30
2017-09-10T21:39:54.516Z,15.40
2017-09-10T21:42:23.484Z,15.30
2017-09-10T21:44:52.545Z,15.30
2017-09-10T21:47:22.241Z,15.30
2017-09-10T21:49:51.619Z,15.20
2017-09-10T21:52:21.350Z,15.20
2017-09-10T21:54:50.785Z,15.20
2017-09-10T21:57:19.740Z,15.20
2017-09-10T21:59:48.717Z,15.10
2017-09-10T22:02:18.488Z,15.10
2017-09-10T22:04:47.443Z,15.10
2017-09-10T22:07:16.614Z,15.10
2017-09-10T22:09:45.576Z,15.10
2017-09-10T22:12:14.528Z,15.20
2017-09-10T22:14:43.496Z,15.20
2017-09-10T22:17:13.236Z,15.10
2017-09-10T22:19:42.247Z,15.10
2017-09-10T22:22:11.222Z,15.10
2017-09-10T22:24:40.189Z,15.20
2017-09-10T22:27:09.145Z,15.20
2017-09-10T22:29:38.509Z,15.20
2017-09-10T22:32:07.472Z,15.20
2017-09-10T22:34:37.209Z,15.10
2017-09-10T22:37:06.219Z,15.10
2017-09-10T22:39:35.626Z,15.20
2017-09-10T22:42:04.562Z,15.10
2017-09-10T22:44:33.544Z,15.10
2017-09-10T22:47:02.490Z,15.20
2017-09-10T22:49:31.445Z,15.10
2017-09-10T22:52:00.392Z,15.10
2017-09-10T22:54:29.362Z,15.10
2017-09-10T22:56:58.312Z,15.20
2017-09-10T22:59:28.061Z,15.10
2017-09-10T23:01:57.670Z,15.10
2017-09-10T23:04:26.794Z,15.20
2017-09-10T23:06:55.790Z,15.10
2017-09-10T23:09:24.744Z,15.10
2017-09-10T23:11:53.727Z,15.10
2017-09-10T23:14:22.800Z,15.10
2017-09-10T23:16:52.500Z,15.00
2017-09-10T23:19:22.246Z,15.00
2017-09-10T23:21:51.292Z,14.90
2017-09-10T23:24:21.041Z,14.90
2017-09-10T23:26:50.737Z,15.00
2017-09-10T23:29:19.712Z,14.90
2017-09-10T23:31:49.438Z,14.90
2017-09-10T23:34:18.391Z,14.90
2017-09-10T23:36:47.365Z,17.80
2017-09-10T23:39:16.723Z,14.80
2017-09-10T23:41:45.700Z,14.80
2017-09-10T23:44:15.045Z,14.90
2017-09-10T23:46:44.028Z,15.00
2017-09-10T23:49:13.764Z,15.00
2017-09-10T23:51:42.747Z,15.00
2017-09-10T23:54:11.700Z,15.00
2017-09-10T23:56:40.693Z,15.00
2017-09-10T23:59:09.668Z,14.90
